Time;durP1;ratioP1;P1;durP2;ratioP2;P2;SDS_P1;SDS_P2;PMS_P1;PMS_P2;Temp;Humidity;BMP_temperature;BMP_pressure;BME280_temperature;BME280_humidity;BME280_pressure;Samples;Min_cycle;Max_cycle;Signal;HPM_P1;HPM_P2
2022/10/12 00:01:58;;;;;;;3.95;2.25;;;8.10;99.90;;;;;;9183835;19;20035;-62
2022/10/12 00:05:02;;;;;;;3.33;2.13;;;8.10;99.90;;;;;;9184703;19;20014;-63
2022/10/12 00:08:06;;;;;;;2.10;1.90;;;7.70;99.90;;;;;;9186799;19;20082;-63
2022/10/12 00:11:15;;;;;;;4.00;2.00;;;8.00;99.90;;;;;;9184382;19;20014;-63
2022/10/12 00:14:20;;;;;;;2.88;2.10;;;;;;;;;;9185062;19;20645;-63
2022/10/12 00:17:24;;;;;;;3.53;2.30;;;8.00;99.90;;;;;;9183317;19;20029;-63
2022/10/12 00:20:28;;;;;;;4.05;2.50;;;7.90;99.90;;;;;;9184824;19;20019;-63
2022/10/12 00:23:32;;;;;;;3.80;2.60;;;8.10;99.90;;;;;;9185312;19;20015;-63
2022/10/12 00:26:39;;;;;;;4.18;2.50;;;7.90;99.90;;;;;;9185050;19;20477;-63
2022/10/12 00:29:42;;;;;;;4.38;2.90;;;7.90;99.90;;;;;;9182504;19;20022;-63
2022/10/12 00:32:47;;;;;;;4.20;2.85;;;;;;;;;;9188606;19;20015;-63
2022/10/12 00:35:53;;;;;;;3.33;2.83;;;;;;;;;;9184729;19;20074;-62
2022/10/12 00:38:58;;;;;;;3.67;2.70;;;7.80;99.90;;;;;;9186137;19;20400;-64
2022/10/12 00:42:05;;;;;;;3.45;2.95;;;7.80;99.90;;;;;;9182573;19;20015;-63
2022/10/12 00:45:11;;;;;;;3.50;2.95;;;8.00;99.90;;;;;;9182707;19;20694;-63
2022/10/12 00:48:15;;;;;;;3.88;2.50;;;;;;;;;;9184760;19;20483;-63
2022/10/12 00:51:21;;;;;;;5.65;2.40;;;7.90;99.90;;;;;;9182950;19;20141;-63
2022/10/12 00:54:34;;;;;;;3.50;2.67;;;8.00;99.90;;;;;;9183124;19;20071;-63
2022/10/12 00:57:40;;;;;;;6.72;3.25;;;7.80;99.90;;;;;;9182320;19;20011;-63
2022/10/12 01:00:45;;;;;;;4.45;3.65;;;7.80;99.90;;;;;;9188133;19;20521;-63
2022/10/12 01:03:50;;;;;;;6.07;3.50;;;7.80;99.90;;;;;;9181911;19;20539;-62
2022/10/12 01:06:54;;;;;;;4.53;3.70;;;8.10;99.90;;;;;;9184279;19;20018;-63
2022/10/12 01:09:58;;;;;;;4.75;3.47;;;7.80;99.90;;;;;;9183773;19;20074;-64
2022/10/12 01:13:05;;;;;;;4.70;3.35;;;7.70;99.90;;;;;;9181749;19;20015;-64
2022/10/12 01:16:15;;;;;;;7.03;3.47;;;7.70;99.90;;;;;;9181568;19;20010;-64
2022/10/12 01:19:34;;;;;;;5.38;3.20;;;7.40;99.90;;;;;;9183110;19;20019;-64
2022/10/12 01:22:46;;;;;;;5.82;4.15;;;7.50;99.90;;;;;;9182752;19;20018;-63
2022/10/12 01:26:06;;;;;;;5.47;4.13;;;7.50;99.90;;;;;;9184337;19;20011;-63
2022/10/12 01:29:27;;;;;;;6.82;3.90;;;7.50;99.90;;;;;;9183131;19;20017;-63
2022/10/12 01:32:37;;;;;;;5.93;3.65;;;7.40;99.90;;;;;;9181901;19;20018;-63
2022/10/12 01:35:47;;;;;;;5.07;3.47;;;7.50;99.90;;;;;;9181380;19;21910;-62
2022/10/12 01:38:58;;;;;;;4.50;3.40;;;7.50;99.90;;;;;;9182748;19;20017;-64
2022/10/12 01:42:09;;;;;;;8.02;3.72;;;7.20;99.90;;;;;;9181256;19;20053;-64
2022/10/12 01:45:15;;;;;;;6.55;3.95;;;7.60;99.90;;;;;;9182384;19;20023;-63
2022/10/12 01:48:21;;;;;;;7.05;3.90;;;7.30;99.90;;;;;;9182171;19;20045;-63
2022/10/12 01:51:36;;;;;;;7.18;4.43;;;7.40;99.90;;;;;;9179267;19;20018;-64
2022/10/12 01:54:53;;;;;;;8.45;4.00;;;7.30;99.90;;;;;;9181879;19;20086;-64
2022/10/12 01:58:21;;;;;;;6.20;4.10;;;7.30;99.90;;;;;;9182236;19;20058;-64
2022/10/12 02:01:34;;;;;;;6.72;4.45;;;7.40;99.90;;;;;;9181933;19;20015;-64
2022/10/12 02:04:46;;;;;;;7.32;4.10;;;7.30;99.90;;;;;;9183847;19;20388;-63
2022/10/12 02:07:54;;;;;;;7.45;4.47;;;7.20;99.90;;;;;;9182938;19;20022;-64
2022/10/12 02:11:04;;;;;;;6.32;4.05;;;7.20;99.90;;;;;;9181795;19;20423;-63
2022/10/12 02:14:13;;;;;;;6.18;4.15;;;6.90;99.90;;;;;;9177635;19;20360;-63
2022/10/12 02:17:22;;;;;;;6.32;4.30;;;7.10;99.90;;;;;;9181144;19;20047;-63
2022/10/12 02:20:29;;;;;;;8.70;4.40;;;7.50;99.90;;;;;;9179063;19;20648;-63
2022/10/12 02:23:33;;;;;;;10.38;4.30;;;7.20;99.90;;;;;;9178750;19;20030;-63
2022/10/12 02:26:42;;;;;;;8.30;4.30;;;5.10;99.90;;;;;;9182080;19;20010;-63
2022/10/12 02:29:48;;;;;;;9.25;4.47;;;7.00;99.90;;;;;;9178942;19;20043;-64
2022/10/12 02:32:56;;;;;;;6.75;4.10;;;7.10;99.90;;;;;;9183952;19;20014;-63
2022/10/12 02:36:07;;;;;;;11.38;4.40;;;7.00;99.90;;;;;;9180231;19;20014;-64
2022/10/12 02:39:16;;;;;;;7.47;4.22;;;6.90;99.90;;;;;;9183635;19;20011;-63
2022/10/12 02:42:24;;;;;;;8.27;4.40;;;7.00;99.90;;;;;;9178692;19;20019;-63
2022/10/12 02:45:29;;;;;;;10.13;4.70;;;6.90;99.90;;;;;;9178827;19;20017;-63
2022/10/12 02:48:34;;;;;;;7.00;4.03;;;7.10;99.90;;;;;;9182097;19;20080;-63
2022/10/12 02:51:43;;;;;;;8.30;4.55;;;7.00;99.90;;;;;;9182030;19;20006;-63
2022/10/12 02:54:47;;;;;;;5.93;4.10;;;7.10;99.90;;;;;;9180415;19;20010;-63
2022/10/12 02:57:51;;;;;;;5.68;4.15;;;;;;;;;;9181250;19;20014;-64
2022/10/12 03:00:55;;;;;;;8.43;4.20;;;7.30;99.90;;;;;;9179198;19;20018;-63
2022/10/12 03:03:59;;;;;;;6.57;3.47;;;6.90;99.90;;;;;;9177952;19;20460;-64
2022/10/12 03:07:06;;;;;;;7.68;3.95;;;6.70;99.90;;;;;;9180557;19;20503;-65
2022/10/12 03:10:11;;;;;;;6.03;3.83;;;6.90;99.90;;;;;;9179075;19;20022;-63
2022/10/12 03:13:15;;;;;;;10.10;4.80;;;7.40;99.90;;;;;;9178065;19;20018;-64
2022/10/12 03:16:19;;;;;;;7.28;4.78;;;6.90;99.90;;;;;;9178241;19;20019;-63
2022/10/12 03:19:23;;;;;;;7.72;4.82;;;7.00;99.90;;;;;;9180574;19;20018;-64
2022/10/12 03:22:30;;;;;;;8.18;4.55;;;7.00;99.90;;;;;;9179354;19;20147;-63
2022/10/12 03:25:34;;;;;;;8.47;4.57;;;7.40;99.90;;;;;;9176998;19;20169;-63
2022/10/12 03:28:38;;;;;;;11.65;5.40;;;;;;;;;;9179544;19;20263;-63
2022/10/12 03:31:42;;;;;;;10.73;4.88;;;7.30;99.90;;;;;;9177837;19;20032;-63
2022/10/12 03:34:46;;;;;;;8.23;4.40;;;7.00;99.90;;;;;;9181927;19;20373;-63
2022/10/12 03:37:53;;;;;;;8.65;4.93;;;7.10;99.90;;;;;;9176098;19;20022;-64
2022/10/12 03:40:57;;;;;;;10.48;5.45;;;6.90;99.90;;;;;;9177351;19;20093;-63
2022/10/12 03:44:00;;;;;;;9.02;5.30;;;6.90;99.90;;;;;;9176033;19;20593;-64
2022/10/12 03:47:04;;;;;;;9.82;5.40;;;7.00;99.90;;;;;;9176539;19;20371;-63
2022/10/12 03:50:09;;;;;;;11.00;5.22;;;6.90;99.90;;;;;;9177514;19;20048;-63
2022/10/12 03:53:15;;;;;;;11.43;5.78;;;6.60;99.90;;;;;;9179067;19;20018;-63
2022/10/12 03:56:19;;;;;;;9.07;5.47;;;7.20;99.90;;;;;;9176727;19;20094;-63
2022/10/12 03:59:23;;;;;;;11.55;5.25;;;;;;;;;;9177018;19;20298;-64
2022/10/12 04:02:27;;;;;;;9.25;5.05;;;;;;;;;;9178435;19;20025;-62
2022/10/12 04:05:32;;;;;;;12.20;5.63;;;6.70;99.90;;;;;;9184855;19;20067;-63
2022/10/12 04:08:38;;;;;;;9.15;5.25;;;6.80;99.90;;;;;;9187778;19;20464;-63
2022/10/12 04:11:42;;;;;;;11.10;6.03;;;6.90;99.90;;;;;;9185645;19;20018;-63
2022/10/12 04:14:46;;;;;;;11.95;5.80;;;6.70;99.90;;;;;;9185571;19;20014;-64
2022/10/12 04:17:50;;;;;;;9.15;5.53;;;6.70;99.90;;;;;;9186587;19;20039;-63
2022/10/12 04:20:55;;;;;;;12.18;6.18;;;6.90;99.90;;;;;;9187471;19;20057;-63
2022/10/12 04:24:01;;;;;;;10.45;6.07;;;7.10;99.90;;;;;;9184823;19;20471;-63
2022/10/12 04:27:06;;;;;;;10.48;5.95;;;;;;;;;;9184050;19;20367;-63
2022/10/12 04:30:11;;;;;;;8.65;6.03;;;7.00;99.90;;;;;;9187288;19;20022;-63
2022/10/12 04:33:15;;;;;;;13.82;6.32;;;6.80;99.90;;;;;;9187185;19;20491;-63
2022/10/12 04:36:19;;;;;;;16.38;6.70;;;;;;;;;;9184826;19;20050;-63
2022/10/12 04:39:26;;;;;;;11.60;6.40;;;6.80;99.90;;;;;;9184135;19;20074;-63
2022/10/12 04:42:30;;;;;;;12.80;7.07;;;;;;;;;;9182823;19;20011;-63
2022/10/12 04:45:34;;;;;;;11.60;6.53;;;6.60;99.90;;;;;;9184169;19;20011;-63
2022/10/12 04:48:38;;;;;;;11.65;6.05;;;;;;;;;;9178366;19;20051;-64
2022/10/12 04:51:42;;;;;;;12.73;6.47;;;6.40;99.90;;;;;;9186778;19;20014;-63
2022/10/12 04:54:49;;;;;;;11.85;6.50;;;6.80;99.90;;;;;;9185228;19;20086;-63
2022/10/12 04:57:53;;;;;;;13.43;6.10;;;6.80;99.90;;;;;;9178097;19;20020;-63
2022/10/12 05:00:57;;;;;;;13.80;6.80;;;6.70;99.90;;;;;;9183479;19;20275;-63
2022/10/12 05:04:01;;;;;;;13.02;6.35;;;7.00;99.90;;;;;;9185170;19;20015;-63
2022/10/12 05:07:05;;;;;;;14.10;6.70;;;6.70;99.90;;;;;;9183519;19;20031;-63
2022/10/12 05:10:12;;;;;;;13.75;6.30;;;6.70;99.90;;;;;;9182974;19;20043;-62
2022/10/12 05:13:16;;;;;;;13.90;6.32;;;6.60;99.90;;;;;;9179767;19;20026;-65
2022/10/12 05:16:20;;;;;;;11.65;6.28;;;;;;;;;;9180712;19;20082;-63
2022/10/12 05:19:24;;;;;;;10.73;5.75;;;;;;;;;;9180744;19;20484;-64
2022/10/12 05:22:29;;;;;;;13.57;6.35;;;;;;;;;;9187560;19;20053;-63
2022/10/12 05:25:36;;;;;;;11.45;5.30;;;6.70;99.90;;;;;;9179409;19;20015;-64
2022/10/12 05:28:40;;;;;;;10.32;6.35;;;6.60;99.90;;;;;;9185954;19;20018;-63
2022/10/12 05:31:44;;;;;;;9.98;6.05;;;;;;;;;;9184252;19;20022;-63
2022/10/12 05:34:49;;;;;;;16.88;6.35;;;;;;;;;;9180769;19;20628;-63
2022/10/12 05:37:53;;;;;;;14.13;6.00;;;6.60;99.90;;;;;;9184272;19;20022;-62
2022/10/12 05:40:59;;;;;;;13.73;6.07;;;6.40;99.90;;;;;;9182477;19;20010;-63
2022/10/12 05:44:03;;;;;;;11.93;6.07;;;;;;;;;;9182023;19;20015;-62
2022/10/12 05:47:08;;;;;;;8.82;5.72;;;;;;;;;;9183382;19;20480;-62
2022/10/12 05:50:12;;;;;;;15.50;5.90;;;6.30;99.90;;;;;;9184317;19;20015;-63
2022/10/12 05:53:16;;;;;;;10.68;5.70;;;;;;;;;;9182114;19;20025;-63
2022/10/12 05:56:22;;;;;;;14.00;6.55;;;6.40;99.90;;;;;;9180798;19;20022;-63
2022/10/12 05:59:26;;;;;;;14.43;6.80;;;6.30;99.90;;;;;;9184792;19;20014;-63
2022/10/12 06:02:30;;;;;;;9.48;6.00;;;6.40;99.90;;;;;;9179885;19;20011;-63
2022/10/12 06:05:34;;;;;;;13.80;6.55;;;6.80;99.90;;;;;;9178008;19;20373;-63
2022/10/12 06:08:38;;;;;;;12.95;6.35;;;6.40;99.90;;;;;;9179946;19;20088;-63
2022/10/12 06:11:45;;;;;;;12.20;6.25;;;6.40;99.90;;;;;;9183841;19;20041;-64
2022/10/12 06:14:48;;;;;;;11.83;7.50;;;6.70;99.90;;;;;;9180588;19;20030;-62
2022/10/12 06:17:52;;;;;;;12.45;5.82;;;6.30;99.90;;;;;;9180722;19;20355;-63
2022/10/12 06:20:57;;;;;;;19.27;6.30;;;6.40;99.90;;;;;;9178498;19;20522;-62
2022/10/12 06:24:02;;;;;;;12.25;6.28;;;6.20;99.90;;;;;;9181697;19;20023;-62
2022/10/12 06:27:09;;;;;;;11.35;5.95;;;6.20;99.90;;;;;;9175087;19;20014;-63
2022/10/12 06:30:13;;;;;;;;;;;6.40;99.90;;;;;;9182362;19;20011;-63
2022/10/12 06:33:17;;;;;;;11.45;5.45;;;6.30;99.90;;;;;;9178838;19;19982;-63
2022/10/12 06:36:22;;;;;;;16.00;6.40;;;6.30;99.90;;;;;;9179150;19;20395;-63
2022/10/12 06:39:27;;;;;;;8.00;5.38;;;;;;;;;;9180196;19;20014;-63
2022/10/12 06:42:33;;;;;;;14.77;6.35;;;6.40;99.90;;;;;;9181609;19;20018;-63
2022/10/12 06:45:39;;;;;;;8.98;5.70;;;6.30;99.90;;;;;;9173915;19;20019;-63
2022/10/12 06:48:43;;;;;;;11.32;5.72;;;6.40;99.90;;;;;;9177337;19;20015;-63
2022/10/12 06:51:47;;;;;;;10.02;6.32;;;;;;;;;;9177019;19;20078;-63
2022/10/12 06:54:51;;;;;;;14.02;6.25;;;;;;;;;;9179372;19;20020;-63
2022/10/12 06:57:59;;;;;;;10.50;6.03;;;6.50;99.90;;;;;;9177917;19;20492;-63
2022/10/12 07:01:05;;;;;;;11.18;6.13;;;6.20;99.90;;;;;;9180865;19;20060;-63
2022/10/12 07:04:09;;;;;;;17.10;7.03;;;6.50;99.90;;;;;;9176509;19;20045;-63
2022/10/12 07:07:13;;;;;;;14.38;6.68;;;6.30;99.90;;;;;;9177739;19;20029;-63
2022/10/12 07:10:17;;;;;;;14.75;6.40;;;6.50;99.90;;;;;;9177279;19;20548;-63
2022/10/12 07:13:23;;;;;;;13.10;6.85;;;6.10;99.90;;;;;;9177340;19;20041;-63
2022/10/12 07:16:27;;;;;;;12.23;6.93;;;6.40;99.90;;;;;;9179097;19;20017;-63
2022/10/12 07:19:31;;;;;;;12.45;6.65;;;;;;;;;;9180606;19;20070;-63
2022/10/12 07:22:35;;;;;;;13.18;6.75;;;;;;;;;;9175860;19;20019;-63
2022/10/12 07:25:40;;;;;;;12.02;6.40;;;6.60;99.90;;;;;;9175530;19;20102;-63
2022/10/12 07:28:47;;;;;;;13.85;7.10;;;6.60;99.90;;;;;;9180048;19;20022;-63
2022/10/12 07:31:51;;;;;;;12.75;6.43;;;7.00;99.90;;;;;;9176799;19;20345;-63
2022/10/12 07:34:55;;;;;;;16.63;6.90;;;;;;;;;;9174237;19;20536;-63
2022/10/12 07:37:59;;;;;;;13.07;7.38;;;;;;;;;;9182621;19;20074;-62
2022/10/12 07:41:04;;;;;;;15.48;6.80;;;7.00;99.90;;;;;;9186242;19;20010;-63
2022/10/12 07:44:11;;;;;;;12.77;6.78;;;6.90;99.90;;;;;;9183917;19;20346;-63
2022/10/12 07:47:15;;;;;;;17.55;6.93;;;7.00;99.90;;;;;;9184388;19;20350;-63
2022/10/12 07:50:19;;;;;;;21.63;6.93;;;7.10;99.90;;;;;;9185750;19;20045;-63
2022/10/12 07:53:23;;;;;;;14.55;6.78;;;7.10;99.90;;;;;;9186639;19;20023;-62
2022/10/12 07:56:28;;;;;;;13.07;6.38;;;7.20;99.90;;;;;;9186889;19;20019;-64
2022/10/12 07:59:34;;;;;;;14.70;6.82;;;7.30;99.90;;;;;;9185229;19;20471;-63
2022/10/12 08:02:38;;;;;;;14.50;7.63;;;7.50;99.90;;;;;;9184750;19;20085;-63
2022/10/12 08:05:42;;;;;;;14.80;6.05;;;7.60;99.90;;;;;;9182360;19;20322;-63
2022/10/12 08:08:46;;;;;;;17.83;7.30;;;7.70;99.90;;;;;;9185947;19;20045;-63
2022/10/12 08:11:50;;;;;;;15.32;6.88;;;7.60;99.90;;;;;;9185030;19;20073;-63
2022/10/12 08:14:57;;;;;;;15.27;6.57;;;8.00;99.90;;;;;;9186877;19;20018;-63
2022/10/12 08:18:01;;;;;;;14.77;6.37;;;8.30;99.90;;;;;;9188513;19;20011;-63
2022/10/12 08:21:05;;;;;;;19.60;6.35;;;8.20;99.90;;;;;;9184547;19;20275;-64
2022/10/12 08:24:10;;;;;;;14.73;5.78;;;8.30;99.90;;;;;;9183792;19;20010;-63
2022/10/12 08:27:15;;;;;;;15.15;6.38;;;8.40;99.90;;;;;;9183820;19;20479;-64
2022/10/12 08:30:25;;;;;;;12.68;5.90;;;8.50;99.90;;;;;;9185483;19;20014;-63
2022/10/12 08:33:31;;;;;;;12.60;6.03;;;8.60;99.90;;;;;;9183079;19;20086;-63
2022/10/12 08:36:35;;;;;;;13.10;5.85;;;8.60;99.90;;;;;;9183532;19;20014;-63
2022/10/12 08:39:39;;;;;;;15.13;5.35;;;8.70;99.90;;;;;;9183396;19;20017;-63
2022/10/12 08:42:52;;;;;;;14.55;5.53;;;8.80;99.90;;;;;;9183388;19;20006;-63
2022/10/12 08:46:01;;;;;;;13.10;5.85;;;8.80;99.90;;;;;;9182456;19;20022;-63
2022/10/12 08:49:08;;;;;;;16.02;5.50;;;8.90;99.90;;;;;;9177418;19;20093;-62
2022/10/12 08:52:25;;;;;;;14.93;4.93;;;9.00;99.90;;;;;;9185890;19;20077;-63
2022/10/12 08:55:37;;;;;;;13.02;6.47;;;8.90;99.90;;;;;;9186715;19;20018;-63
2022/10/12 08:58:41;;;;;;;15.77;5.45;;;9.00;99.90;;;;;;9188061;19;20018;-63
2022/10/12 09:02:00;;;;;;;14.82;5.40;;;9.10;99.90;;;;;;9182651;19;20013;-63
2022/10/12 09:05:09;;;;;;;12.30;5.07;;;9.40;99.90;;;;;;9183459;19;20011;-64
2022/10/12 09:08:23;;;;;;;14.90;5.70;;;9.20;99.90;;;;;;9182468;19;20070;-64
2022/10/12 09:11:45;;;;;;;10.10;5.63;;;9.40;99.90;;;;;;9181919;19;20758;-63
2022/10/12 09:14:53;;;;;;;14.93;5.20;;;9.70;99.90;;;;;;9185036;19;20018;-63
2022/10/12 09:18:03;;;;;;;16.25;5.63;;;10.10;99.90;;;;;;9181787;19;20484;-63
2022/10/12 09:21:10;;;;;;;13.93;5.50;;;10.10;99.90;;;;;;9183929;19;20014;-63
2022/10/12 09:24:18;;;;;;;14.73;5.30;;;10.20;99.90;;;;;;9183709;19;20053;-63
2022/10/12 09:27:23;;;;;;;15.40;4.90;;;10.30;99.90;;;;;;9181631;19;20084;-64
2022/10/12 09:30:27;;;;;;;16.35;5.57;;;10.30;99.90;;;;;;9181351;19;20014;-62
2022/10/12 09:33:38;;;;;;;14.27;5.32;;;10.30;99.90;;;;;;9181699;19;20334;-64
2022/10/12 09:36:43;;;;;;;13.40;4.82;;;10.50;99.90;;;;;;9181158;19;20014;-63
2022/10/12 09:39:48;;;;;;;12.45;5.15;;;10.70;99.90;;;;;;9185306;19;20355;-63
2022/10/12 09:42:53;;;;;;;15.07;5.15;;;10.90;99.90;;;;;;9180679;19;20540;-64
2022/10/12 09:46:12;;;;;;;11.57;4.43;;;11.10;99.90;;;;;;9178217;19;20023;-63
2022/10/12 09:49:19;;;;;;;17.70;4.72;;;11.50;99.90;;;;;;9178224;19;20104;-64
2022/10/12 09:52:24;;;;;;;;;;;12.30;99.90;;;;;;9185713;19;20021;-64
2022/10/12 09:55:29;;;;;;;15.82;4.95;;;11.80;99.90;;;;;;9180176;19;19974;-64
2022/10/12 09:58:41;;;;;;;13.88;4.47;;;11.30;99.90;;;;;;9184655;19;20022;-64
2022/10/12 10:01:59;;;;;;;13.65;4.20;;;11.70;99.90;;;;;;9179754;19;20499;-63
2022/10/12 10:05:25;;;;;;;9.98;4.00;;;11.70;99.90;;;;;;9178884;19;20045;-63
2022/10/12 10:08:29;;;;;;;12.55;4.07;;;11.90;99.90;;;;;;9179936;19;20014;-63
2022/10/12 10:11:34;;;;;;;13.18;3.97;;;11.30;99.90;;;;;;9179814;19;20022;-63
2022/10/12 10:14:38;;;;;;;15.38;3.88;;;11.70;99.90;;;;;;9182046;19;20024;-63
2022/10/12 10:17:42;;;;;;;15.77;4.13;;;11.50;99.90;;;;;;9176253;19;20022;-64
2022/10/12 10:20:54;;;;;;;11.80;3.85;;;11.60;99.90;;;;;;9177976;19;20011;-65
2022/10/12 10:24:00;;;;;;;14.98;4.68;;;11.70;99.90;;;;;;9180909;19;20024;-63
2022/10/12 10:27:06;;;;;;;13.20;4.15;;;11.70;99.90;;;;;;9181081;19;20377;-63
2022/10/12 10:30:26;;;;;;;11.45;4.32;;;11.70;99.90;;;;;;9181600;19;20065;-63
2022/10/12 10:34:11;;;;;;;13.35;4.18;;;11.70;99.90;;;;;;9174550;19;20022;-64
2022/10/12 10:37:34;;;;;;;12.07;3.90;;;12.00;99.90;;;;;;9174660;19;20523;-63
2022/10/12 10:40:54;;;;;;;10.55;3.55;;;12.30;99.90;;;;;;9174533;19;20022;-63
2022/10/12 10:44:26;;;;;;;10.60;3.60;;;12.50;99.90;;;;;;9179909;19;20029;-63
2022/10/12 10:47:46;;;;;;;10.90;3.30;;;12.60;99.90;;;;;;9173391;19;20365;-63
2022/10/12 10:50:59;;;;;;;12.40;3.17;;;12.80;99.90;;;;;;9179394;19;20014;-63
2022/10/12 10:54:16;;;;;;;12.40;3.65;;;13.00;99.90;;;;;;9178074;19;20382;-64
2022/10/12 10:57:22;;;;;;;;;;;12.90;99.90;;;;;;9178790;19;20020;-64
2022/10/12 11:00:26;;;;;;;13.60;3.20;;;13.30;99.90;;;;;;9182126;19;19914;-64
2022/10/12 11:03:41;;;;;;;8.13;2.70;;;13.50;99.90;;;;;;9178001;19;20018;-63
2022/10/12 11:06:49;;;;;;;14.18;3.05;;;13.50;99.90;;;;;;9176178;19;20362;-63
2022/10/12 11:09:59;;;;;;;7.47;2.67;;;13.70;99.90;;;;;;9183174;19;20022;-63
2022/10/12 11:13:12;;;;;;;8.98;2.88;;;13.80;99.90;;;;;;9176223;19;20019;-63
2022/10/12 11:16:27;;;;;;;7.40;2.47;;;14.00;99.90;;;;;;9178873;19;20018;-63
2022/10/12 11:19:38;;;;;;;6.17;2.10;;;14.20;99.90;;;;;;9176136;19;20813;-63
2022/10/12 11:22:50;;;;;;;5.95;2.35;;;14.20;99.90;;;;;;9176920;19;20025;-63
2022/10/12 11:26:08;;;;;;;8.68;2.30;;;14.00;99.90;;;;;;9177769;19;20015;-63
2022/10/12 11:29:16;;;;;;;7.82;2.20;;;14.20;99.90;;;;;;9179339;19;20050;-63
2022/10/12 11:32:27;;;;;;;11.20;2.42;;;14.30;99.90;;;;;;9177580;19;20093;-64
2022/10/12 11:35:36;;;;;;;8.00;2.42;;;14.30;99.90;;;;;;9175505;19;20400;-63
2022/10/12 11:38:44;;;;;;;11.15;2.38;;;13.90;99.90;;;;;;9174476;19;20026;-62
2022/10/12 11:41:54;;;;;;;8.95;2.25;;;14.60;99.90;;;;;;9177199;19;20022;-64
2022/10/12 11:44:59;;;;;;;8.23;2.70;;;15.30;99.90;;;;;;9178900;19;20018;-64
2022/10/12 11:48:09;;;;;;;7.30;1.77;;;14.80;99.90;;;;;;9173223;19;20007;-64
2022/10/12 11:51:14;;;;;;;7.55;2.17;;;15.10;99.90;;;;;;9180745;19;20010;-64
2022/10/12 11:54:27;;;;;;;7.13;2.30;;;15.20;99.90;;;;;;9182436;19;20049;-64
2022/10/12 11:57:38;;;;;;;8.40;1.92;;;15.20;99.90;;;;;;9176436;19;20016;-63
2022/10/12 12:00:54;;;;;;;7.43;2.33;;;15.00;99.90;;;;;;9180306;19;20475;-64
2022/10/12 12:04:19;;;;;;;7.43;2.50;;;15.10;99.90;;;;;;9173402;19;20029;-64
2022/10/12 12:07:43;;;;;;;8.45;2.40;;;15.20;99.90;;;;;;9167597;19;20015;-63
2022/10/12 12:11:20;;;;;;;8.07;2.13;;;15.20;99.90;;;;;;9168853;19;20022;-64
2022/10/12 12:14:47;;;;;;;9.02;2.33;;;15.30;99.90;;;;;;9176399;19;20605;-63
2022/10/12 12:18:13;;;;;;;9.80;2.20;;;15.30;99.90;;;;;;9168023;19;20604;-63
2022/10/12 12:21:17;;;;;;;10.27;2.53;;;15.70;99.80;;;;;;9170575;19;20073;-63
2022/10/12 12:24:21;;;;;;;7.65;2.38;;;15.80;99.90;;;;;;9182103;19;20021;-64
2022/10/12 12:27:31;;;;;;;9.05;1.80;;;15.70;98.90;;;;;;9180646;19;20045;-64
2022/10/12 12:30:41;;;;;;;10.38;2.40;;;15.70;98.40;;;;;;9183715;19;20010;-64
2022/10/12 12:33:48;;;;;;;9.25;2.30;;;15.60;97.50;;;;;;9183978;19;20014;-64
2022/10/12 12:36:53;;;;;;;4.97;2.00;;;15.70;99.30;;;;;;9183410;19;20010;-63
2022/10/12 12:39:59;;;;;;;7.65;2.15;;;15.80;98.90;;;;;;9184471;19;20018;-63
2022/10/12 12:43:37;;;;;;;11.07;2.20;;;15.80;96.60;;;;;;9184310;19;20043;-64
2022/10/12 12:47:22;;;;;;;8.63;2.20;;;15.80;95.70;;;;;;9180549;19;20049;-63
2022/10/12 12:50:35;;;;;;;6.72;2.05;;;15.70;97.00;;;;;;9184701;19;20403;-63
2022/10/12 12:53:44;;;;;;;9.82;2.03;;;16.30;97.70;;;;;;9182584;19;20390;-64
2022/10/12 12:57:10;;;;;;;7.47;2.20;;;16.30;97.60;;;;;;9182417;19;20018;-64
2022/10/12 13:00:21;;;;;;;11.38;2.58;;;16.40;94.80;;;;;;9185146;19;20025;-64
2022/10/12 13:03:50;;;;;;;9.38;2.33;;;16.60;96.40;;;;;;9185539;19;20018;-64
2022/10/12 13:07:16;;;;;;;7.43;2.20;;;16.60;95.20;;;;;;9180245;19;20014;-64
2022/10/12 13:10:31;;;;;;;7.93;2.50;;;16.50;94.60;;;;;;9183078;19;20014;-64
2022/10/12 13:13:49;;;;;;;6.25;1.92;;;16.70;95.10;;;;;;9184818;19;20030;-64
2022/10/12 13:17:11;;;;;;;9.40;2.50;;;17.30;95.80;;;;;;9181150;19;21101;-63
2022/10/12 13:20:23;;;;;;;10.52;2.20;;;17.10;94.00;;;;;;9179869;19;20480;-63
2022/10/12 13:23:29;;;;;;;8.65;2.25;;;17.00;93.10;;;;;;9183681;19;20010;-63
2022/10/12 13:26:36;;;;;;;8.32;2.40;;;17.10;94.40;;;;;;9182653;19;20476;-64
2022/10/12 13:29:48;;;;;;;8.90;3.03;;;17.10;93.70;;;;;;9186860;19;20013;-63
2022/10/12 13:32:58;;;;;;;6.95;3.08;;;17.20;93.90;;;;;;9180869;19;20033;-64
2022/10/12 13:36:08;;;;;;;8.27;2.45;;;17.40;93.80;;;;;;9176791;19;20073;-64
2022/10/12 13:39:17;;;;;;;7.80;2.63;;;17.30;93.60;;;;;;9184373;19;20018;-64
2022/10/12 13:42:27;;;;;;;12.15;2.97;;;17.50;92.40;;;;;;9180437;19;20018;-64
2022/10/12 13:45:31;;;;;;;7.80;2.55;;;17.50;92.60;;;;;;9182692;19;20019;-64
2022/10/12 13:48:35;;;;;;;12.05;2.90;;;17.40;92.70;;;;;;9179943;19;20021;-64
2022/10/12 13:51:41;;;;;;;13.40;4.20;;;17.40;92.60;;;;;;9180221;19;20015;-64
2022/10/12 13:54:48;;;;;;;10.30;3.15;;;17.40;93.10;;;;;;9179624;19;20126;-63
2022/10/12 13:57:52;;;;;;;7.05;3.17;;;17.50;93.00;;;;;;9180051;19;20015;-64
2022/10/12 14:00:56;;;;;;;12.85;3.30;;;17.60;93.00;;;;;;9180698;19;20026;-64
2022/10/12 14:04:08;;;;;;;9.18;2.92;;;17.60;92.70;;;;;;9182387;19;20018;-64
2022/10/12 14:07:22;;;;;;;9.75;3.03;;;17.80;93.20;;;;;;9181193;19;20026;-64
2022/10/12 14:10:30;;;;;;;9.23;2.55;;;18.00;92.00;;;;;;9181440;19;20023;-64
2022/10/12 14:13:36;;;;;;;13.70;3.50;;;18.30;92.50;;;;;;9180548;19;20601;-63
2022/10/12 14:16:40;;;;;;;9.07;2.83;;;18.30;92.30;;;;;;9178420;19;20006;-64
2022/10/12 14:19:47;;;;;;;7.53;2.80;;;18.60;91.70;;;;;;9180833;19;20129;-64
2022/10/12 14:22:53;;;;;;;11.30;3.00;;;18.40;91.60;;;;;;9181074;19;20085;-64
2022/10/12 14:25:58;;;;;;;10.50;2.90;;;18.50;90.60;;;;;;9177647;19;20014;-64
2022/10/12 14:29:32;;;;;;;8.57;2.85;;;18.80;90.30;;;;;;9180230;19;20018;-64
2022/10/12 14:32:43;;;;;;;11.30;4.22;;;18.90;86.60;;;;;;9182338;19;20011;-64
2022/10/12 14:35:50;;;;;;;11.43;3.35;;;18.20;88.40;;;;;;9178798;19;20341;-64
2022/10/12 14:38:57;;;;;;;7.05;3.13;;;19.10;89.70;;;;;;9178279;19;20018;-64
2022/10/12 14:42:04;;;;;;;7.45;2.58;;;19.20;85.90;;;;;;9179200;19;20022;-64
2022/10/12 14:45:24;;;;;;;12.90;3.53;;;19.20;86.50;;;;;;9180285;19;20512;-64
2022/10/12 14:48:28;;;;;;;8.82;2.85;;;19.30;84.50;;;;;;9176733;19;20074;-64
2022/10/12 14:51:32;;;;;;;9.88;2.70;;;19.40;83.90;;;;;;9177737;19;20074;-64
2022/10/12 14:54:39;;;;;;;8.65;2.65;;;19.30;82.00;;;;;;9179510;19;20010;-64
2022/10/12 14:57:44;;;;;;;9.48;2.67;;;18.70;83.30;;;;;;9181564;19;20022;-64
2022/10/12 15:00:48;;;;;;;12.15;4.25;;;18.60;83.90;;;;;;9177739;19;20053;-64
2022/10/12 15:03:52;;;;;;;11.13;3.35;;;18.40;83.90;;;;;;9177595;19;20022;-64
2022/10/12 15:06:55;;;;;;;7.80;4.32;;;18.70;83.90;;;;;;9178933;19;20011;-63
2022/10/12 15:10:03;;;;;;;9.02;2.65;;;18.40;85.10;;;;;;9177345;19;20015;-64
2022/10/12 15:13:06;;;;;;;9.27;3.00;;;18.70;85.40;;;;;;9178289;19;20018;-64
2022/10/12 15:16:19;;;;;;;12.80;3.33;;;18.60;84.80;;;;;;9179680;19;20015;-63
2022/10/12 15:19:23;;;;;;;9.35;2.80;;;18.00;85.10;;;;;;9177581;19;20018;-64
2022/10/12 15:22:28;;;;;;;8.30;3.13;;;17.30;88.10;;;;;;9181393;19;20011;-64
2022/10/12 15:25:41;;;;;;;11.75;3.00;;;17.00;88.10;;;;;;9179067;19;20014;-64
2022/10/12 15:28:46;;;;;;;9.50;3.00;;;16.70;89.50;;;;;;9177433;19;20051;-64
2022/10/12 15:31:50;;;;;;;10.68;3.30;;;16.30;90.80;;;;;;9173965;19;20021;-65
2022/10/12 15:34:53;;;;;;;9.15;3.45;;;16.10;91.80;;;;;;9164877;19;20040;-64
2022/10/12 15:37:57;;;;;;;9.15;3.40;;;15.90;92.50;;;;;;9179112;19;20018;-64
2022/10/12 15:41:05;;;;;;;10.02;4.18;;;15.90;93.40;;;;;;9176529;19;21062;-64
2022/10/12 15:44:08;;;;;;;;;;;15.60;94.20;;;;;;9178712;19;20022;-66
2022/10/12 15:47:12;;;;;;;9.10;2.88;;;15.80;94.80;;;;;;9173742;19;19919;-64
2022/10/12 15:50:16;;;;;;;10.57;2.70;;;15.50;95.40;;;;;;9173241;19;20078;-64
2022/10/12 15:53:23;;;;;;;10.80;3.03;;;15.70;96.20;;;;;;9178765;19;20047;-64
2022/10/12 15:56:30;;;;;;;5.97;2.90;;;15.30;96.60;;;;;;9171124;19;20018;-64
2022/10/12 15:59:34;;;;;;;14.02;3.15;;;15.50;97.60;;;;;;9182185;19;20022;-64
2022/10/12 16:02:39;;;;;;;11.07;3.22;;;15.30;97.90;;;;;;9186907;19;20023;-63
2022/10/12 16:05:44;;;;;;;10.55;3.40;;;15.10;98.20;;;;;;9185854;19;20014;-64
2022/10/12 16:08:48;;;;;;;8.35;3.00;;;15.00;98.70;;;;;;9183723;19;20022;-63
2022/10/12 16:11:55;;;;;;;7.45;3.17;;;15.00;99.30;;;;;;9184293;19;20048;-63
2022/10/12 16:14:59;;;;;;;12.10;3.60;;;14.90;99.50;;;;;;9186060;19;20015;-63
2022/10/12 16:18:04;;;;;;;11.32;3.35;;;14.80;99.90;;;;;;9185196;19;20391;-63
2022/10/12 16:21:08;;;;;;;10.10;3.60;;;15.00;99.90;;;;;;9182694;19;20015;-64
2022/10/12 16:24:12;;;;;;;10.60;3.40;;;14.50;99.90;;;;;;9181871;19;20015;-64
2022/10/12 16:27:19;;;;;;;10.05;3.00;;;14.60;99.90;;;;;;9181689;19;20044;-66
2022/10/12 16:30:23;;;;;;;10.65;3.30;;;14.60;99.90;;;;;;9181895;19;20019;-64